Time;durP1;ratioP1;P1;durP2;ratioP2;P2;SDS_P1;SDS_P2;PMS_P1;PMS_P2;Temp;Humidity;BMP_temperature;BMP_pressure;BME280_temperature;BME280_humidity;BME280_pressure;Samples;Min_cycle;Max_cycle;Signal;HPM_P1;HPM_P2
2023/03/15 00:01:10;;;;;;;1.27;1.17;;;18.00;41.10;;;;;;4993999;28;20958;-66
2023/03/15 00:03:36;;;;;;;1.70;1.10;;;18.00;41.10;;;;;;4993245;28;20505;-66
2023/03/15 00:06:02;;;;;;;1.07;0.97;;;18.00;41.10;;;;;;4998297;28;20576;-66
2023/03/15 00:08:28;;;;;;;1.17;1.00;;;17.90;41.10;;;;;;4996780;28;20223;-66
2023/03/15 00:10:53;;;;;;;1.50;1.00;;;17.90;41.10;;;;;;4985296;28;20995;-66
2023/03/15 00:13:19;;;;;;;1.07;0.90;;;17.90;41.10;;;;;;4994119;28;20227;-66
2023/03/15 00:15:50;;;;;;;2.07;1.00;;;17.90;41.10;;;;;;4990976;28;20215;-66
2023/03/15 00:18:17;;;;;;;1.10;1.00;;;17.90;41.10;;;;;;4997037;28;20237;-66
2023/03/15 00:20:43;;;;;;;1.20;1.10;;;17.90;41.10;;;;;;4993343;28;20464;-66
2023/03/15 00:23:08;;;;;;;1.00;0.90;;;17.90;41.20;;;;;;4997628;28;20499;-66
2023/03/15 00:25:34;;;;;;;2.00;1.00;;;17.90;41.20;;;;;;4997060;28;20857;-66
2023/03/15 00:27:59;;;;;;;1.27;1.17;;;17.90;41.10;;;;;;4997111;28;20223;-66
2023/03/15 00:30:25;;;;;;;1.20;1.00;;;17.90;41.10;;;;;;4985141;28;20230;-66
2023/03/15 00:32:54;;;;;;;1.20;1.10;;;17.90;41.10;;;;;;4992591;28;20313;-66
2023/03/15 00:35:20;;;;;;;2.47;1.10;;;17.90;41.10;;;;;;4983403;28;20216;-66
2023/03/15 00:37:46;;;;;;;1.53;1.10;;;17.90;41.10;;;;;;4989619;28;20453;-66
2023/03/15 00:40:12;;;;;;;1.47;0.90;;;17.90;41.10;;;;;;4987561;28;20508;-66
2023/03/15 00:42:38;;;;;;;2.00;0.97;;;17.90;41.10;;;;;;4992132;28;21724;-66
2023/03/15 00:45:05;;;;;;;1.93;1.33;;;17.90;41.10;;;;;;4991001;28;22230;-66
2023/03/15 00:47:30;;;;;;;1.00;0.90;;;17.90;41.10;;;;;;4993280;28;20461;-66
2023/03/15 00:49:56;;;;;;;1.30;1.00;;;17.90;41.20;;;;;;4987112;28;20461;-66
2023/03/15 00:52:22;;;;;;;1.33;1.00;;;17.90;41.10;;;;;;4993185;28;20675;-66
2023/03/15 00:54:52;;;;;;;1.27;1.17;;;17.90;41.20;;;;;;4993737;28;20308;-66
2023/03/15 00:57:18;;;;;;;1.40;0.97;;;17.90;41.10;;;;;;4995132;28;20250;-66
2023/03/15 00:59:44;;;;;;;1.33;1.13;;;17.90;41.20;;;;;;4991190;28;20464;-66
2023/03/15 01:02:10;;;;;;;1.17;1.07;;;17.90;41.20;;;;;;4994284;28;20310;-66
2023/03/15 01:04:36;;;;;;;1.33;1.00;;;17.90;41.10;;;;;;4982491;28;20267;-66
2023/03/15 01:07:03;;;;;;;1.20;1.10;;;17.90;41.10;;;;;;4987382;28;20493;-66
2023/03/15 01:09:30;;;;;;;1.30;1.00;;;17.90;41.10;;;;;;4990530;28;20465;-66
2023/03/15 01:11:56;;;;;;;1.50;0.90;;;17.90;41.20;;;;;;4985191;28;20439;-65
2023/03/15 01:14:22;;;;;;;1.20;1.10;;;17.90;41.20;;;;;;4989166;28;20499;-67
2023/03/15 01:16:48;;;;;;;1.20;1.10;;;17.90;41.20;;;;;;4989744;28;20440;-67
2023/03/15 01:19:14;;;;;;;0.90;0.90;;;17.90;41.10;;;;;;4994254;28;20489;-66
2023/03/15 01:21:40;;;;;;;1.20;1.10;;;17.90;41.10;;;;;;4988509;28;20247;-66
2023/03/15 01:24:06;;;;;;;1.10;1.00;;;17.90;41.20;;;;;;4975950;28;20809;-66
2023/03/15 01:26:32;;;;;;;1.20;1.10;;;17.90;41.10;;;;;;4990336;28;20224;-66
2023/03/15 01:28:57;;;;;;;0.90;0.90;;;17.90;41.10;;;;;;4991959;28;20431;-67
2023/03/15 01:31:26;;;;;;;1.10;0.93;;;17.90;41.20;;;;;;5001089;28;20294;-67
2023/03/15 01:33:52;;;;;;;0.80;0.80;;;17.90;41.10;;;;;;4984751;28;20636;-66
2023/03/15 01:36:18;;;;;;;1.10;1.00;;;17.90;41.10;;;;;;4991996;28;20655;-66
2023/03/15 01:38:44;;;;;;;1.70;1.03;;;17.90;41.10;;;;;;4993617;28;20816;-66
2023/03/15 01:41:12;;;;;;;1.03;0.93;;;17.90;41.20;;;;;;4986380;28;20294;-66
2023/03/15 01:43:38;;;;;;;1.10;1.00;;;17.90;41.10;;;;;;4994866;28;20271;-66
2023/03/15 01:46:05;;;;;;;1.20;1.03;;;17.90;41.90;;;;;;4989366;28;20580;-66
2023/03/15 01:48:43;;;;;;;1.70;1.10;;;17.90;41.20;;;;;;4992629;28;20239;-66
2023/03/15 01:51:35;;;;;;;1.70;1.03;;;17.90;41.30;;;;;;4995705;28;21015;-66
2023/03/15 01:54:18;;;;;;;0.90;0.90;;;17.90;41.10;;;;;;4988979;28;20541;-66
2023/03/15 01:56:53;;;;;;;1.30;1.10;;;17.90;41.20;;;;;;4994192;28;20456;-66
2023/03/15 01:59:26;;;;;;;1.23;1.07;;;17.90;41.20;;;;;;4998846;28;20448;-66
2023/03/15 02:01:53;;;;;;;1.17;1.07;;;17.90;41.20;;;;;;4996732;28;20470;-66
2023/03/15 02:04:24;;;;;;;1.20;1.10;;;17.90;41.20;;;;;;4995908;28;21037;-66
2023/03/15 02:06:58;;;;;;;1.20;1.10;;;17.90;41.30;;;;;;4996881;28;20512;-66
2023/03/15 02:09:30;;;;;;;1.20;1.10;;;17.90;41.20;;;;;;4993939;28;20488;-66
2023/03/15 02:11:56;;;;;;;1.10;1.00;;;17.90;41.20;;;;;;4991486;28;20588;-66
2023/03/15 02:14:22;;;;;;;1.20;1.10;;;17.90;41.20;;;;;;4993232;28;20462;-66
2023/03/15 02:16:48;;;;;;;1.10;1.00;;;17.90;41.20;;;;;;4989297;28;20491;-66
2023/03/15 02:19:36;;;;;;;1.20;1.10;;;17.90;41.10;;;;;;4997654;28;20912;-66
2023/03/15 02:22:12;;;;;;;1.90;1.00;;;17.90;41.20;;;;;;4986825;28;20223;-66
2023/03/15 02:24:48;;;;;;;1.30;1.20;;;17.90;41.20;;;;;;4992454;28;20454;-66
2023/03/15 02:27:20;;;;;;;1.00;0.87;;;17.90;41.20;;;;;;4987041;28;20472;-66
2023/03/15 02:29:46;;;;;;;1.00;0.90;;;17.90;41.20;;;;;;4980382;28;20430;-66
2023/03/15 02:32:12;;;;;;;1.53;1.20;;;17.90;41.20;;;;;;4993469;28;20930;-66
2023/03/15 02:34:37;;;;;;;1.10;0.83;;;17.90;41.20;;;;;;4991382;28;20373;-66
2023/03/15 02:37:03;;;;;;;1.20;1.10;;;17.90;41.20;;;;;;4993210;28;20607;-67
2023/03/15 02:39:28;;;;;;;1.00;0.90;;;17.90;41.20;;;;;;4992436;28;20322;-67
2023/03/15 02:41:57;;;;;;;0.80;0.80;;;17.90;41.20;;;;;;4984577;28;20330;-66
2023/03/15 02:44:31;;;;;;;1.63;1.00;;;17.90;41.20;;;;;;4993463;28;20259;-66
2023/03/15 02:47:07;;;;;;;1.00;0.90;;;17.90;41.20;;;;;;4983592;28;20824;-66
2023/03/15 02:49:40;;;;;;;0.80;0.80;;;17.90;41.30;;;;;;4992882;28;20490;-66
2023/03/15 02:52:06;;;;;;;0.80;0.80;;;17.90;41.20;;;;;;4984636;28;20945;-66
2023/03/15 02:54:35;;;;;;;1.10;1.00;;;17.90;41.20;;;;;;4993057;28;20446;-66
2023/03/15 02:57:01;;;;;;;1.10;1.00;;;17.90;41.20;;;;;;4992037;28;20573;-66
2023/03/15 02:59:27;;;;;;;0.83;0.83;;;17.90;41.20;;;;;;4988803;28;20559;-66
2023/03/15 03:01:52;;;;;;;1.10;1.00;;;17.90;41.20;;;;;;4994148;28;20432;-66
2023/03/15 03:04:18;;;;;;;1.23;1.10;;;17.90;41.20;;;;;;4995542;28;20232;-66
2023/03/15 03:06:43;;;;;;;0.90;0.80;;;17.90;41.20;;;;;;4987880;28;20217;-67
2023/03/15 03:09:10;;;;;;;1.00;0.90;;;17.90;41.20;;;;;;4996650;28;20265;-66
2023/03/15 03:11:36;;;;;;;1.00;0.90;;;17.90;41.10;;;;;;4992939;28;20273;-66
2023/03/15 03:14:02;;;;;;;1.77;0.90;;;17.90;41.20;;;;;;4992086;28;20691;-66
2023/03/15 03:16:27;;;;;;;1.00;0.90;;;17.90;41.20;;;;;;4990308;28;21232;-66
2023/03/15 03:18:53;;;;;;;1.20;1.10;;;17.90;41.20;;;;;;4995961;28;20231;-66
2023/03/15 03:21:18;;;;;;;1.00;0.90;;;17.90;41.20;;;;;;4992470;28;20322;-66
2023/03/15 03:23:45;;;;;;;1.30;1.20;;;17.90;41.20;;;;;;4992063;28;20246;-66
2023/03/15 03:26:16;;;;;;;0.93;0.93;;;17.90;41.20;;;;;;4997037;28;20230;-66
2023/03/15 03:28:46;;;;;;;0.80;0.80;;;17.90;41.20;;;;;;4995308;28;20452;-66
2023/03/15 03:31:23;;;;;;;1.10;1.00;;;17.90;41.90;;;;;;4998696;28;20460;-66
2023/03/15 03:33:50;;;;;;;0.80;0.80;;;17.90;41.20;;;;;;4998774;28;20461;-66
2023/03/15 03:36:15;;;;;;;0.90;0.90;;;17.90;41.20;;;;;;4998766;28;20532;-66
2023/03/15 03:38:43;;;;;;;0.90;0.90;;;17.90;41.20;;;;;;4996259;28;20457;-66
2023/03/15 03:41:10;;;;;;;0.90;0.80;;;17.90;41.20;;;;;;4994577;28;20223;-66
2023/03/15 03:43:36;;;;;;;1.20;1.10;;;17.90;41.10;;;;;;4983993;28;20464;-66
2023/03/15 03:46:02;;;;;;;1.30;0.83;;;17.90;41.20;;;;;;4988874;28;20482;-66
2023/03/15 03:48:28;;;;;;;1.03;0.90;;;17.90;41.20;;;;;;4995042;28;21555;-66
2023/03/15 03:50:53;;;;;;;1.47;0.90;;;17.90;41.20;;;;;;4985421;28;20455;-66
2023/03/15 03:53:20;;;;;;;1.00;0.90;;;17.90;41.20;;;;;;4985824;28;20227;-66
2023/03/15 03:55:45;;;;;;;0.97;0.90;;;17.90;41.20;;;;;;4993926;28;20226;-66
2023/03/15 03:58:11;;;;;;;1.20;0.90;;;17.90;41.20;;;;;;4995156;28;20804;-66
2023/03/15 04:00:37;;;;;;;1.10;1.00;;;17.90;41.20;;;;;;4993177;28;20219;-66
2023/03/15 04:03:02;;;;;;;1.53;0.90;;;17.90;41.10;;;;;;4996832;28;20254;-66
2023/03/15 04:05:28;;;;;;;1.00;0.90;;;17.90;41.20;;;;;;4993380;28;21527;-66
2023/03/15 04:07:54;;;;;;;1.13;1.03;;;17.90;41.10;;;;;;4992119;28;20254;-67
2023/03/15 04:10:25;;;;;;;1.00;0.90;;;17.90;41.20;;;;;;4991312;28;20409;-66
2023/03/15 04:12:52;;;;;;;0.97;0.87;;;17.90;41.20;;;;;;4994570;28;20301;-66
2023/03/15 04:15:18;;;;;;;1.17;1.07;;;17.90;41.20;;;;;;4995318;28;20464;-66
2023/03/15 04:17:43;;;;;;;0.80;0.80;;;17.90;41.20;;;;;;4989325;28;20453;-66
2023/03/15 04:20:11;;;;;;;0.97;0.87;;;17.90;41.10;;;;;;4994305;28;20216;-66
2023/03/15 04:22:38;;;;;;;1.10;1.00;;;17.80;41.00;;;;;;4991627;28;20220;-66
2023/03/15 04:25:04;;;;;;;1.10;1.00;;;17.90;41.10;;;;;;4994682;28;20665;-66
2023/03/15 04:27:30;;;;;;;0.80;0.80;;;17.90;41.10;;;;;;4977903;28;20799;-66
2023/03/15 04:29:55;;;;;;;0.90;0.83;;;17.80;41.00;;;;;;4991278;28;20232;-66
2023/03/15 04:32:21;;;;;;;1.07;0.93;;;17.90;41.10;;;;;;4987862;28;20274;-66
2023/03/15 04:34:50;;;;;;;1.10;1.00;;;17.90;41.10;;;;;;4990765;28;20365;-65
2023/03/15 04:37:16;;;;;;;1.00;0.90;;;17.90;41.10;;;;;;4995037;28;20220;-64
2023/03/15 04:39:42;;;;;;;1.10;1.00;;;17.90;41.10;;;;;;4992124;28;20431;-66
2023/03/15 04:42:08;;;;;;;1.07;0.97;;;17.90;41.10;;;;;;4994039;28;20457;-66
2023/03/15 04:44:33;;;;;;;1.17;1.07;;;17.90;41.20;;;;;;4990635;28;20231;-65
2023/03/15 04:46:59;;;;;;;0.90;0.80;;;17.90;41.10;;;;;;4991573;28;20318;-66
2023/03/15 04:49:24;;;;;;;0.80;0.80;;;17.90;41.10;;;;;;4994822;28;20267;-65
2023/03/15 04:51:50;;;;;;;1.00;0.90;;;17.90;41.00;;;;;;4987248;28;20569;-66
2023/03/15 04:54:15;;;;;;;0.80;0.70;;;17.90;41.10;;;;;;4992587;28;20223;-66
2023/03/15 04:56:41;;;;;;;1.17;1.07;;;17.90;41.00;;;;;;4985007;28;20774;-66
2023/03/15 04:59:07;;;;;;;0.90;0.80;;;17.90;41.00;;;;;;4984181;28;20691;-66
2023/03/15 05:01:32;;;;;;;1.00;0.90;;;17.90;41.00;;;;;;4996161;28;20227;-66
2023/03/15 05:03:58;;;;;;;0.83;0.83;;;17.90;41.00;;;;;;4996372;28;20687;-68
2023/03/15 05:06:24;;;;;;;0.80;0.80;;;17.90;41.00;;;;;;4999176;28;20223;-68
2023/03/15 05:08:50;;;;;;;1.07;0.97;;;17.90;41.00;;;;;;4996229;28;20255;-69
2023/03/15 05:11:15;;;;;;;0.80;0.80;;;17.90;40.80;;;;;;4996413;28;20602;-66
2023/03/15 05:13:41;;;;;;;0.97;0.90;;;18.00;40.90;;;;;;4989814;28;20298;-66
2023/03/15 05:16:07;;;;;;;1.13;1.03;;;18.00;40.80;;;;;;4991917;28;20758;-67
2023/03/15 05:18:32;;;;;;;1.03;0.93;;;18.00;40.80;;;;;;4996323;28;20231;-66
2023/03/15 05:20:58;;;;;;;0.90;0.80;;;18.00;40.70;;;;;;4995306;28;20226;-66
2023/03/15 05:23:24;;;;;;;1.07;0.97;;;18.00;40.80;;;;;;4982572;28;20242;-67
2023/03/15 05:25:54;;;;;;;0.83;0.83;;;18.00;40.70;;;;;;4988368;28;20219;-67
2023/03/15 05:28:22;;;;;;;1.10;1.00;;;18.00;40.70;;;;;;4984400;28;21171;-66
2023/03/15 05:30:48;;;;;;;0.80;0.80;;;18.00;40.70;;;;;;4968877;28;20432;-66
2023/03/15 05:33:15;;;;;;;1.07;0.97;;;18.00;40.70;;;;;;4984657;28;20473;-64
2023/03/15 05:35:43;;;;;;;1.10;1.00;;;18.00;40.70;;;;;;4973975;28;20419;-66
2023/03/15 05:38:08;;;;;;;0.90;0.87;;;18.00;40.70;;;;;;4981283;28;20495;-66
2023/03/15 05:40:34;;;;;;;0.87;0.87;;;18.00;40.70;;;;;;4983078;28;20432;-66
2023/03/15 05:42:59;;;;;;;1.40;1.30;;;18.00;40.70;;;;;;4974014;28;20239;-66
2023/03/15 05:45:25;;;;;;;0.93;0.90;;;18.00;40.70;;;;;;4984292;28;20234;-66
2023/03/15 05:47:51;;;;;;;1.03;0.93;;;18.00;40.70;;;;;;4982923;28;20240;-66
2023/03/15 05:50:16;;;;;;;0.80;0.80;;;18.00;40.70;;;;;;4992553;28;20675;-65
2023/03/15 05:52:42;;;;;;;1.10;1.00;;;18.00;40.70;;;;;;4986971;28;20828;-65
2023/03/15 05:55:07;;;;;;;1.83;1.10;;;18.00;40.70;;;;;;4991083;28;20220;-65
2023/03/15 05:57:33;;;;;;;1.00;0.90;;;18.00;40.80;;;;;;4991054;28;20220;-65
2023/03/15 05:59:59;;;;;;;1.20;1.10;;;18.00;40.80;;;;;;4993917;28;22549;-67
2023/03/15 06:02:24;;;;;;;2.00;1.20;;;18.00;40.70;;;;;;4989618;28;20616;-68
2023/03/15 06:04:50;;;;;;;1.03;0.93;;;18.00;40.80;;;;;;5002758;28;20615;-68
2023/03/15 06:07:15;;;;;;;0.80;0.80;;;18.00;40.80;;;;;;4985628;28;20326;-69
2023/03/15 06:09:41;;;;;;;1.20;1.10;;;18.00;40.80;;;;;;4995447;28;20228;-70
2023/03/15 06:12:06;;;;;;;0.90;0.90;;;18.00;40.80;;;;;;4978543;28;20228;-69
2023/03/15 06:14:32;;;;;;;0.83;0.83;;;18.00;40.70;;;;;;4968253;28;20331;-69
2023/03/15 06:16:57;;;;;;;0.90;0.90;;;18.00;40.80;;;;;;4983653;28;20224;-68
2023/03/15 06:19:23;;;;;;;1.10;1.00;;;18.00;40.70;;;;;;4995592;28;20232;-68
2023/03/15 06:21:50;;;;;;;1.17;1.07;;;18.00;40.70;;;;;;4989976;28;20223;-69
2023/03/15 06:24:15;;;;;;;1.83;1.30;;;18.00;40.70;;;;;;4978564;28;20266;-68
2023/03/15 06:26:41;;;;;;;1.17;1.00;;;18.00;40.80;;;;;;4988370;28;20523;-67
2023/03/15 06:29:06;;;;;;;5.27;2.60;;;18.00;40.70;;;;;;4991724;28;20224;-67
2023/03/15 06:31:32;;;;;;;1.20;1.10;;;18.00;40.60;;;;;;4989141;28;20235;-66
2023/03/15 06:33:57;;;;;;;1.47;1.00;;;18.00;40.60;;;;;;4993700;28;20928;-67
2023/03/15 06:36:23;;;;;;;0.80;0.80;;;18.00;40.70;;;;;;4991409;28;20243;-67
2023/03/15 06:38:49;;;;;;;1.43;0.90;;;18.00;40.60;;;;;;4990644;28;20223;-67
2023/03/15 06:41:15;;;;;;;2.30;1.07;;;18.00;40.60;;;;;;5000172;28;20248;-67
2023/03/15 06:43:41;;;;;;;1.07;0.97;;;18.00;40.60;;;;;;4993460;28;20644;-67
2023/03/15 06:46:06;;;;;;;0.90;0.90;;;18.00;40.60;;;;;;5001996;28;20675;-66
2023/03/15 06:48:32;;;;;;;1.20;1.10;;;18.00;40.70;;;;;;4993429;28;20212;-67
2023/03/15 06:50:58;;;;;;;1.10;1.00;;;18.00;40.70;;;;;;5002390;28;20223;-66
2023/03/15 06:53:23;;;;;;;1.10;1.00;;;18.00;40.70;;;;;;5000923;28;20944;-66
2023/03/15 06:55:50;;;;;;;1.20;1.10;;;18.00;40.70;;;;;;5001699;28;20315;-67
2023/03/15 06:58:15;;;;;;;1.00;1.00;;;18.00;40.70;;;;;;4999947;28;21340;-67
2023/03/15 07:00:41;;;;;;;1.40;1.13;;;18.00;40.70;;;;;;4999905;28;20424;-67
2023/03/15 07:03:07;;;;;;;1.10;1.00;;;18.00;40.70;;;;;;4999573;28;21021;-66
2023/03/15 07:05:32;;;;;;;1.67;1.20;;;18.00;40.80;;;;;;5001144;28;20226;-67
2023/03/15 07:07:58;;;;;;;1.40;1.10;;;18.00;40.70;;;;;;5001228;28;20817;-66
2023/03/15 07:10:23;;;;;;;1.10;1.00;;;18.00;40.70;;;;;;4994676;28;20219;-67
2023/03/15 07:12:49;;;;;;;1.30;1.20;;;18.00;40.80;;;;;;5002598;28;20243;-66
2023/03/15 07:15:18;;;;;;;1.10;1.00;;;18.00;40.70;;;;;;4999703;28;20223;-67
2023/03/15 07:17:43;;;;;;;1.77;1.67;;;18.00;40.80;;;;;;4999622;28;20669;-67
2023/03/15 07:20:09;;;;;;;1.10;1.00;;;18.00;40.70;;;;;;4997375;28;20963;-67
2023/03/15 07:22:35;;;;;;;1.23;1.13;;;18.00;40.80;;;;;;4994246;28;20235;-67
2023/03/15 07:25:01;;;;;;;1.20;1.10;;;18.00;40.80;;;;;;4996526;28;20431;-66
2023/03/15 07:27:26;;;;;;;0.93;0.93;;;18.00;40.80;;;;;;4998900;28;20631;-67
2023/03/15 07:29:54;;;;;;;1.30;0.93;;;18.00;40.80;;;;;;5000747;28;20286;-67
2023/03/15 07:32:19;;;;;;;1.20;1.10;;;18.00;41.50;;;;;;5001044;28;20223;-66
2023/03/15 07:34:45;;;;;;;1.33;1.23;;;18.00;40.80;;;;;;4999228;28;20510;-67
2023/03/15 07:37:10;;;;;;;1.50;1.40;;;18.00;40.80;;;;;;5000930;28;20266;-66
2023/03/15 07:39:36;;;;;;;1.67;1.27;;;18.00;40.80;;;;;;4999661;28;20686;-67
2023/03/15 07:42:01;;;;;;;1.00;0.90;;;18.00;40.70;;;;;;4999719;28;20247;-66
2023/03/15 07:44:27;;;;;;;1.20;1.10;;;18.00;40.80;;;;;;4998733;28;20307;-67
2023/03/15 07:46:54;;;;;;;1.40;1.13;;;17.90;40.70;;;;;;4999143;28;20239;-66
2023/03/15 07:49:20;;;;;;;1.03;0.97;;;18.00;40.80;;;;;;5000196;28;20254;-67
2023/03/15 07:51:46;;;;;;;1.00;1.00;;;17.90;40.70;;;;;;4998761;28;21145;-67
2023/03/15 07:54:11;;;;;;;1.20;1.10;;;18.00;40.70;;;;;;4994811;28;20765;-66
2023/03/15 07:56:37;;;;;;;1.10;1.00;;;17.90;40.70;;;;;;4982523;28;20223;-66
2023/03/15 07:59:02;;;;;;;1.10;1.00;;;18.00;40.80;;;;;;4995316;28;20219;-67
2023/03/15 08:01:28;;;;;;;1.00;0.90;;;18.00;40.80;;;;;;4995148;28;20266;-67
2023/03/15 08:03:53;;;;;;;1.20;1.10;;;18.00;40.80;;;;;;4999333;28;20239;-67
2023/03/15 08:06:19;;;;;;;1.10;1.00;;;17.90;40.70;;;;;;4998878;28;20337;-66
2023/03/15 08:08:45;;;;;;;1.23;1.13;;;18.00;40.80;;;;;;4999556;28;20277;-66
2023/03/15 08:11:11;;;;;;;1.10;1.00;;;18.00;40.80;;;;;;5000030;28;20322;-67
2023/03/15 08:13:37;;;;;;;1.43;1.33;;;17.90;40.70;;;;;;4992739;28;20456;-67
2023/03/15 08:16:02;;;;;;;1.20;1.10;;;18.00;40.80;;;;;;4999915;28;20227;-66
2023/03/15 08:18:28;;;;;;;1.53;0.93;;;18.00;40.80;;;;;;4999077;28;20862;-67
2023/03/15 08:20:54;;;;;;;1.20;1.10;;;17.90;40.70;;;;;;5001092;28;20227;-67
2023/03/15 08:23:20;;;;;;;1.10;1.10;;;18.00;40.80;;;;;;4998534;28;20238;-67
2023/03/15 08:25:46;;;;;;;1.30;1.20;;;17.90;40.70;;;;;;4988363;28;20475;-67
2023/03/15 08:28:13;;;;;;;1.20;1.10;;;18.00;40.80;;;;;;4998276;28;20482;-66
2023/03/15 08:30:38;;;;;;;1.17;1.07;;;18.00;40.80;;;;;;4995023;28;20436;-67
2023/03/15 08:33:05;;;;;;;1.20;1.10;;;17.90;40.70;;;;;;4992688;28;20468;-67
2023/03/15 08:35:33;;;;;;;1.30;1.20;;;17.90;40.70;;;;;;4995460;28;20224;-67
2023/03/15 08:38:01;;;;;;;1.30;1.10;;;17.90;40.80;;;;;;5000352;28;20444;-67
2023/03/15 08:40:27;;;;;;;1.00;1.00;;;18.00;40.80;;;;;;4997375;28;20470;-67
2023/03/15 08:42:53;;;;;;;1.27;1.17;;;18.00;40.80;;;;;;4995137;28;20997;-67
2023/03/15 08:45:19;;;;;;;1.20;1.10;;;18.00;40.80;;;;;;4995140;28;20440;-67
2023/03/15 08:47:44;;;;;;;1.40;1.30;;;17.90;40.70;;;;;;4997167;28;20238;-67
2023/03/15 08:50:14;;;;;;;1.20;1.10;;;17.90;40.70;;;;;;4996948;28;20445;-67
2023/03/15 08:52:40;;;;;;;1.30;1.10;;;18.00;40.80;;;;;;5000923;28;20211;-67
2023/03/15 08:55:07;;;;;;;1.10;1.00;;;17.90;40.70;;;;;;4981330;28;20908;-67
2023/03/15 08:57:33;;;;;;;1.10;1.00;;;17.90;40.70;;;;;;4998953;28;20472;-67
2023/03/15 09:00:00;;;;;;;1.20;1.10;;;17.90;40.70;;;;;;4986619;28;20432;-67
2023/03/15 09:02:29;;;;;;;3.33;1.00;;;17.90;40.70;;;;;;5000324;28;20915;-67
2023/03/15 09:04:54;;;;;;;1.20;1.10;;;17.90;40.70;;;;;;5000990;28;20881;-67
2023/03/15 09:07:20;;;;;;;1.20;1.10;;;17.90;40.70;;;;;;4999477;28;20539;-67
2023/03/15 09:09:47;;;;;;;1.53;1.10;;;18.00;40.80;;;;;;4994707;28;20231;-67
2023/03/15 09:12:16;;;;;;;1.30;1.20;;;17.90;40.70;;;;;;4989071;28;20587;-67
2023/03/15 09:14:42;;;;;;;1.20;0.93;;;17.90;40.70;;;;;;4995286;28;20423;-67
2023/03/15 09:17:08;;;;;;;1.20;1.10;;;17.90;40.70;;;;;;4999725;28;20511;-67
2023/03/15 09:19:33;;;;;;;1.33;1.23;;;17.90;40.70;;;;;;4999570;28;20509;-67
2023/03/15 09:21:59;;;;;;;1.10;1.00;;;17.90;40.70;;;;;;4996122;28;20289;-67
2023/03/15 09:24:24;;;;;;;1.30;1.20;;;17.90;40.70;;;;;;4993812;28;20635;-67
2023/03/15 09:26:50;;;;;;;1.20;1.10;;;17.90;40.70;;;;;;4997700;28;20234;-67
2023/03/15 09:29:15;;;;;;;1.60;1.50;;;17.90;40.80;;;;;;4991927;28;20235;-66
2023/03/15 09:31:41;;;;;;;8.13;1.30;;;18.00;40.80;;;;;;5000384;28;20640;-67
2023/03/15 09:34:06;;;;;;;2.00;1.77;;;17.90;40.70;;;;;;4993438;28;20275;-67
2023/03/15 09:36:32;;;;;;;1.27;1.00;;;17.90;40.70;;;;;;4995785;28;20269;-67
2023/03/15 09:38:58;;;;;;;1.23;1.13;;;17.90;40.70;;;;;;4993720;28;20224;-67
2023/03/15 09:41:44;;;;;;;1.37;1.27;;;18.00;40.80;;;;;;4994483;28;20254;-67
2023/03/15 09:44:29;;;;;;;1.60;1.47;;;17.90;40.70;;;;;;4983656;28;20444;-67
2023/03/15 09:47:20;;;;;;;1.10;1.00;;;17.90;40.70;;;;;;4996324;28;20486;-67
2023/03/15 09:50:29;;;;;;;1.10;1.00;;;18.00;40.80;;;;;;4998460;28;20519;-67
2023/03/15 09:53:03;;;;;;;1.23;1.13;;;18.00;40.80;;;;;;4998845;28;20431;-67
2023/03/15 09:55:29;;;;;;;2.93;1.00;;;18.00;40.80;;;;;;4999769;28;20469;-67
2023/03/15 09:58:02;;;;;;;1.20;1.10;;;17.90;40.70;;;;;;4999390;28;20941;-67
2023/03/15 10:00:38;;;;;;;1.00;0.90;;;18.00;40.80;;;;;;5000487;28;20215;-67
2023/03/15 10:03:08;;;;;;;1.20;1.10;;;17.90;40.60;;;;;;4992919;28;20494;-67
2023/03/15 10:05:48;;;;;;;1.30;1.20;;;18.00;40.80;;;;;;4999221;28;20518;-67
2023/03/15 10:08:18;;;;;;;0.90;0.90;;;18.00;40.70;;;;;;5001262;28;20434;-67
2023/03/15 10:10:48;;;;;;;1.20;1.10;;;18.00;40.70;;;;;;4993818;28;20946;-67
2023/03/15 10:13:37;;;;;;;1.23;1.13;;;18.00;40.70;;;;;;4990633;28;20460;-67
2023/03/15 10:16:34;;;;;;;1.20;1.10;;;18.00;40.70;;;;;;5000416;28;20424;-67
2023/03/15 10:19:05;;;;;;;0.93;0.93;;;18.00;40.70;;;;;;4999217;28;20478;-67
2023/03/15 10:21:53;;;;;;;1.10;1.00;;;18.00;40.70;;;;;;5001200;28;20439;-67
2023/03/15 10:24:44;;;;;;;1.03;0.93;;;17.90;40.60;;;;;;5001617;28;20447;-67
2023/03/15 10:27:19;;;;;;;1.23;1.13;;;18.00;40.80;;;;;;5012515;28;20902;-67
2023/03/15 10:29:47;;;;;;;1.83;1.10;;;18.00;40.70;;;;;;5002087;28;20426;-68
2023/03/15 10:32:16;;;;;;;1.53;1.10;;;18.00;40.70;;;;;;5002553;28;20474;-67
2023/03/15 10:34:46;;;;;;;1.10;1.00;;;18.00;40.70;;;;;;4999193;28;20449;-67
2023/03/15 10:37:11;;;;;;;1.00;0.90;;;18.00;40.70;;;;;;5001507;28;20521;-66
2023/03/15 10:39:37;;;;;;;1.10;1.00;;;18.00;40.70;;;;;;5000104;28;21009;-67
2023/03/15 10:42:02;;;;;;;1.20;1.10;;;18.00;40.70;;;;;;5002067;28;20226;-67
2023/03/15 10:44:28;;;;;;;1.30;1.20;;;18.00;40.60;;;;;;4996120;28;20231;-67
2023/03/15 10:47:06;;;;;;;1.23;1.13;;;18.00;40.70;;;;;;4991050;28;20355;-67
2023/03/15 10:49:34;;;;;;;1.20;1.10;;;18.00;40.70;;;;;;4990068;28;21058;-67
2023/03/15 10:51:59;;;;;;;1.00;1.00;;;18.00;40.70;;;;;;5004439;28;20464;-67
2023/03/15 10:54:26;;;;;;;1.40;1.30;;;18.00;40.70;;;;;;5000584;28;20429;-67
2023/03/15 10:57:01;;;;;;;1.20;1.10;;;18.00;40.70;;;;;;4990435;28;20295;-67
2023/03/15 10:59:29;;;;;;;1.20;1.00;;;18.00;40.70;;;;;;4998951;28;21401;-67
2023/03/15 11:02:10;;;;;;;1.00;0.90;;;18.00;40.70;;;;;;4993857;28;20438;-67
2023/03/15 11:04:40;;;;;;;1.13;1.03;;;18.00;40.70;;;;;;4988786;28;20456;-67
2023/03/15 11:07:06;;;;;;;0.83;0.83;;;18.00;40.70;;;;;;4990583;28;21020;-67
2023/03/15 11:09:51;;;;;;;1.17;1.00;;;18.00;40.70;;;;;;5000296;28;20493;-67
2023/03/15 11:12:27;;;;;;;1.10;1.00;;;18.00;40.60;;;;;;4997850;28;20782;-65
2023/03/15 11:15:01;;;;;;;1.00;0.90;;;18.00;40.60;;;;;;5001790;28;20446;-67
2023/03/15 11:17:34;;;;;;;1.20;1.10;;;18.00;40.60;;;;;;5000321;28;20465;-67
2023/03/15 11:20:15;;;;;;;1.10;1.00;;;18.00;40.60;;;;;;4999571;28;20464;-67
2023/03/15 11:22:40;;;;;;;1.10;1.00;;;18.00;40.60;;;;;;4997198;28;20516;-67
2023/03/15 11:25:17;;;;;;;3.83;1.10;;;18.00;40.60;;;;;;4999598;28;21165;-67
2023/03/15 11:27:45;;;;;;;3.67;1.33;;;18.00;40.60;;;;;;5001815;28;20691;-67
2023/03/15 11:30:16;;;;;;;1.23;1.13;;;18.00;40.60;;;;;;5000027;28;21120;-66
2023/03/15 11:32:43;;;;;;;1.13;1.07;;;18.00;40.60;;;;;;4999798;28;20452;-67
2023/03/15 11:35:46;;;;;;;1.30;1.00;;;18.00;40.60;;;;;;5000360;28;20515;-66
2023/03/15 11:38:23;;;;;;;1.10;0.90;;;18.00;40.60;;;;;;4996266;28;20920;-66
2023/03/15 11:40:52;;;;;;;1.10;1.00;;;18.00;40.60;;;;;;4999679;28;20464;-67
2023/03/15 11:43:21;;;;;;;1.07;0.97;;;18.00;40.60;;;;;;4995434;28;20427;-66
2023/03/15 11:46:04;;;;;;;1.10;1.00;;;18.00;40.60;;;;;;4985947;28;20511;-67
2023/03/15 11:48:39;;;;;;;0.90;0.90;;;18.00;40.60;;;;;;4995126;28;21059;-67
2023/03/15 11:51:07;;;;;;;1.10;0.90;;;18.00;40.60;;;;;;4991560;28;20427;-67
2023/03/15 11:53:37;;;;;;;1.67;1.00;;;18.00;40.50;;;;;;4998189;28;20480;-67
2023/03/15 11:56:24;;;;;;;1.50;1.10;;;18.00;40.50;;;;;;4992446;28;20435;-67
2023/03/15 11:59:05;;;;;;;1.00;0.90;;;18.10;40.60;;;;;;4991603;28;20658;-66
2023/03/15 12:01:33;;;;;;;1.00;0.90;;;18.00;40.60;;;;;;4985488;28;20442;-67
2023/03/15 12:04:24;;;;;;;1.10;0.97;;;18.00;40.60;;;;;;4991240;28;20955;-67
2023/03/15 12:06:54;;;;;;;1.20;1.10;;;18.00;40.50;;;;;;4996310;28;20513;-67
2023/03/15 12:09:32;;;;;;;0.90;0.80;;;18.00;40.60;;;;;;4999125;28;20471;-67
2023/03/15 12:12:03;;;;;;;0.90;0.90;;;18.00;40.50;;;;;;4999309;28;20435;-67
2023/03/15 12:14:36;;;;;;;0.90;0.90;;;18.10;40.60;;;;;;4990977;28;20955;-67
2023/03/15 12:17:25;;;;;;;1.03;1.00;;;18.00;40.50;;;;;;4999170;28;20539;-67
2023/03/15 12:20:07;;;;;;;1.00;0.90;;;18.00;40.50;;;;;;4989409;28;20420;-67
2023/03/15 12:22:34;;;;;;;0.90;0.90;;;18.00;40.50;;;;;;4996634;28;20435;-67
2023/03/15 12:25:14;;;;;;;0.90;0.90;;;18.00;40.60;;;;;;4996067;28;20477;-67
2023/03/15 12:27:51;;;;;;;0.87;0.83;;;18.00;40.50;;;;;;4995074;28;20443;-67
2023/03/15 12:30:32;;;;;;;1.10;1.00;;;18.00;40.50;;;;;;4998509;28;20915;-67
2023/03/15 12:32:58;;;;;;;0.90;0.90;;;18.00;40.50;;;;;;4991519;28;20552;-67
2023/03/15 12:35:29;;;;;;;1.30;0.90;;;18.00;40.50;;;;;;4999072;28;20506;-67
2023/03/15 12:37:57;;;;;;;1.10;0.97;;;18.00;40.50;;;;;;5002275;28;20448;-67
2023/03/15 12:40:54;;;;;;;0.90;0.90;;;18.00;40.40;;;;;;4990716;28;20528;-67
2023/03/15 12:43:43;;;;;;;1.60;0.80;;;18.00;40.40;;;;;;4989663;28;20531;-67
2023/03/15 12:46:38;;;;;;;0.90;0.90;;;18.10;40.50;;;;;;4999962;28;20436;-67
2023/03/15 12:49:05;;;;;;;1.10;1.00;;;18.10;40.50;;;;;;4997410;28;20487;-67
2023/03/15 12:52:00;;;;;;;1.10;1.00;;;18.00;40.40;;;;;;4998405;28;20427;-67
2023/03/15 12:54:53;;;;;;;0.80;0.80;;;18.10;40.50;;;;;;4993420;28;20432;-67
2023/03/15 12:57:26;;;;;;;0.83;0.83;;;18.00;40.30;;;;;;4999940;28;20435;-67